CDT,Max TemperatureF,Mean TemperatureF,Min TemperatureF,Max Dew PointF,MeanDew PointF,Min DewpointF,Max Humidity, Mean Humidity, Min Humidity, Max Sea Level PressureIn, Mean Sea Level PressureIn, Min Sea Level PressureIn, Max VisibilityMiles, Mean VisibilityMiles, Min VisibilityMiles, Max Wind SpeedMPH, Mean Wind SpeedMPH, Max Gust SpeedMPH,PrecipitationIn, CloudCover, Events, WindDirDegrees
2013-10-1,95,83,73,75,72,65,94,78,39,29.91,29.84,29.77,10,6,0,13,3,21,0.00,4,Fog,120
2013-10-2,93,86,78,75,73,65,89,73,42,29.95,29.88,29.80,10,10,10,13,7,17,0.00,5,Rain,152
2013-10-3,93,84,75,74,71,66,91,69,44,29.93,29.86,29.78,10,10,8,14,8,21,0.00,3,,155
2013-10-4,93,83,73,73,71,67,93,72,42,29.92,29.86,29.78,10,10,6,14,6,18,0.00,2,,152
2013-10-5,93,80,68,73,67,46,94,70,41,29.99,29.89,29.83,10,10,5,15,5,26,0.00,4,,136
2013-10-6,84,70,57,54,47,35,87,53,18,30.12,30.07,30.00,10,9,2,17,8,24,0.21,3,Rain-Thunderstorm,14
2013-10-7,89,70,53,51,46,35,83,51,16,30.15,30.09,30.02,10,10,10,9,1,,0.00,0,,104
2013-10-8,86,69,54,54,50,45,86,54,25,30.07,30.01,29.96,10,10,10,12,2,,0.00,0,,143
2013-10-9,87,71,55,62,57,53,90,64,36,30.04,29.97,29.91,10,10,8,14,4,20,0.00,0,,134
2013-10-10,89,77,66,68,64,62,87,67,42,30.00,29.93,29.84,10,10,10,15,5,22,0.00,2,,130
2013-10-11,95,84,75,74,71,69,89,73,47,29.93,29.86,29.77,10,10,10,12,8,16,0.00,7,,150
2013-10-12,95,86,78,75,73,69,84,69,44,29.99,29.92,29.85,10,8,4,13,7,18,0.00,6,,147
2013-10-13,80,76,71,75,72,64,90,85,78,30.14,30.04,29.96,10,8,2,21,7,30,0.90,6,Rain,94
2013-10-14,90,82,75,74,72,69,90,80,53,30.06,30.00,29.86,10,8,2,15,6,20,0.12,6,Rain,127
2013-10-15,89,82,72,72,70,63,89,74,48,29.98,29.91,29.82,10,9,6,12,4,16,0.00,5,,137
2013-10-16,68,64,59,61,57,55,90,84,73,30.06,29.99,29.89,10,6,1,14,8,17,0.33,8,Rain,15
2013-10-17,78,66,57,59,53,47,88,65,38,30.11,30.03,29.96,10,10,10,12,2,,0.00,3,,40
2013-10-18,77,70,64,67,61,52,90,74,63,29.98,29.91,29.84,10,10,7,9,5,,0.00,8,,71
2013-10-19,73,64,52,65,47,36,87,59,26,30.17,30.08,29.96,10,10,5,20,9,28,0.00,3,,23
2013-10-20,77,62,48,55,47,43,86,62,33,30.08,30.00,29.90,10,10,10,6,1,,0.00,0,,145
2013-10-21,82,72,61,67,62,55,90,73,54,30.01,29.92,29.86,10,10,7,12,1,,0.00,4,,330
2013-10-22,80,68,55,55,46,33,75,52,19,30.14,30.08,30.02,10,10,10,17,10,,0.00,1,,6
2013-10-23,82,65,48,50,45,39,86,57,22,30.18,30.12,30.08,10,10,10,6,2,,0.00,0,,198
2013-10-24,82,66,51,55,51,47,86,60,31,30.22,30.16,30.11,10,8,0,8,3,,0.00,0,,119
2013-10-25,84,68,55,64,58,52,90,69,44,30.28,30.21,30.16,10,10,8,10,3,,0.00,2,,114
2013-10-26,86,74,64,65,63,61,94,77,47,30.21,30.13,30.04,10,7,2,13,6,,0.00,6,,109
2013-10-27,84,75,66,68,65,62,90,79,49,30.10,30.02,29.95,10,9,4,9,2,,0.00,6,,71
2013-10-28,88,78,69,70,67,64,88,76,48,30.06,30.00,29.92,10,10,8,17,7,23,0.00,7,,142
2013-10-29,89,80,73,72,69,67,91,78,51,30.07,30.01,29.91,10,10,7,16,8,24,0.00,6,Rain,142
2013-10-30,87,81,75,74,73,70,91,81,59,30.01,29.89,29.77,10,10,6,15,8,22,0.00,7,Rain-Thunderstorm,157
2013-10-31,87,73,60,74,64,35,94,73,18,29.88,29.81,29.75,10,8,2,16,8,22,0.16,5,Rain-Thunderstorm,230